KATY/ATY METAR and TAF weather

Enter ICAO airport designator
Station Type Date Time Source
KATY METAR 2020/10/29 16:53 UTC NOAA

KATY 291653Z AUTO 14005KT 10SM CLR 01/M04 A3013 RMK AO2 SLP225 T00061044


Station Type Date Time Source
KATY Decoded METAR 2020/10/29 16:53 UTC NOAA

WATERTOWN MUNICIPAL AIRPORT, SD, United States (KATY) 44-54N 097-09W 532M
Oct 29, 2020 - 12:53 PM EDT / 2020.10.29 1653 UTC
Wind: from the SE (140 degrees) at 6 MPH (5 KT):0
Visibility: 10 mile(s):0
Sky conditions: clear
Temperature: 33.1 F (0.6 C)
Windchill: 28 F (-2 C):1
Dew Point: 24.1 F (-4.4 C)
Relative Humidity: 69%
Pressure (altimeter): 30.13 in. Hg (1020 hPa)
ob: KATY 291653Z AUTO 14005KT 10SM CLR 01/M04 A3013 RMK AO2 SLP225 T00061044
cycle: 17

Station Type Date Time Source
KATY TAF 2020/10/29 18:24 UTC NOAA

TAF KATY 291720Z 2918/3018 VRB04KT P6SM FEW250
FM292300 16008KT P6SM BKN045
FM301000 30007KT P6SM BKN015
FM301600 VRB05KT P6SM BKN025

Example: see airport list